Time;durP1;ratioP1;P1;durP2;ratioP2;P2;SDS_P1;SDS_P2;PMS_P1;PMS_P2;Temp;Humidity;BMP_temperature;BMP_pressure;BME280_temperature;BME280_humidity;BME280_pressure;Samples;Min_cycle;Max_cycle;Signal;HPM_P1;HPM_P2
2021/04/19 00:00:39;;;;;;;38.42;25.98;;;;;;;5.65;68.11;95535.44;5010964;28;20042;-79
2021/04/19 00:03:05;;;;;;;43.28;28.50;;;;;;;5.73;67.74;95537.56;5012138;28;20046;-78
2021/04/19 00:05:30;;;;;;;36.10;26.73;;;;;;;5.85;67.19;95549.72;5012144;28;20530;-77
2021/04/19 00:07:56;;;;;;;42.33;29.45;;;;;;;5.57;67.12;95487.66;5013952;28;20036;-78
2021/04/19 00:10:22;;;;;;;43.65;28.75;;;;;;;5.93;67.33;95530.72;5011709;28;20112;-80
2021/04/19 00:12:48;;;;;;;38.58;27.45;;;;;;;5.91;66.77;95525.72;5011581;28;20069;-76
2021/04/19 00:15:18;;;;;;;37.08;26.30;;;;;;;6.01;66.90;95522.28;5011624;28;20116;-78
2021/04/19 00:17:43;;;;;;;38.00;25.55;;;;;;;6.02;66.68;95515.94;5010134;28;20034;-79
2021/04/19 00:20:09;;;;;;;34.42;25.38;;;;;;;6.14;66.45;95524.38;5011434;28;20025;-78
2021/04/19 00:22:35;;;;;;;32.97;25.00;;;;;;;6.19;66.15;95526.19;5013295;28;20032;-79
2021/04/19 00:25:02;;;;;;;35.75;26.38;;;;;;;6.16;66.44;95511.69;5011884;28;20121;-77
2021/04/19 00:27:28;;;;;;;33.80;24.55;;;;;;;6.19;66.20;95513.81;5011544;28;20049;-78
2021/04/19 00:29:53;;;;;;;35.47;25.38;;;;;;;6.23;66.27;95521.97;5010143;28;20030;-78
2021/04/19 00:32:19;;;;;;;33.90;24.50;;;;;;;6.17;66.46;95505.34;5010257;28;20018;-78
2021/04/19 00:34:44;;;;;;;34.30;25.42;;;;;;;6.17;66.42;95499.28;5013482;28;20113;-80
2021/04/19 00:37:09;;;;;;;35.17;25.45;;;;;;;6.32;66.54;95516.94;5009938;28;20069;-78
2021/04/19 00:39:35;;;;;;;37.10;25.33;;;;;;;6.19;66.52;95495.31;5010252;28;20042;-77
2021/04/19 00:42:01;;;;;;;33.13;24.95;;;;;;;6.24;66.05;95497.97;5026309;28;20038;-78
2021/04/19 00:44:26;;;;;;;41.03;26.23;;;;;;;6.21;66.01;95489.78;5011243;28;20054;-78
2021/04/19 00:46:52;;;;;;;38.08;26.55;;;;;;;6.16;65.76;95489.78;5012983;28;20029;-79
2021/04/19 00:49:18;;;;;;;31.92;25.17;;;;;;;6.17;66.51;95494.78;5010432;28;20042;-80
2021/04/19 00:51:44;;;;;;;35.30;24.88;;;;;;;6.13;66.32;95496.38;5011035;28;20033;-79
2021/04/19 00:54:12;;;;;;;34.85;25.45;;;;;;;6.13;66.81;95504.28;5010038;28;20034;-78
2021/04/19 00:56:38;;;;;;;38.58;24.83;;;;;;;6.24;66.41;95505.88;5011053;28;20034;-78
2021/04/19 00:59:04;;;;;;;34.35;25.13;;;;;;;6.15;66.55;95481.06;5012570;28;20049;-79
2021/04/19 01:01:32;;;;;;;38.35;25.30;;;;;;;6.35;67.08;95500.59;5010538;28;20038;-76
2021/04/19 01:03:58;;;;;;;32.85;23.48;;;;;;;6.38;66.47;95492.88;5009287;28;20053;-77
2021/04/19 01:06:23;;;;;;;34.00;24.83;;;;;;;6.49;66.62;95505.00;5025940;28;20037;-77
2021/04/19 01:08:49;;;;;;;36.78;25.58;;;;;;;6.47;66.08;95491.28;5008941;28;20034;-76
2021/04/19 01:11:15;;;;;;;33.25;24.75;;;;;;;6.49;65.70;95491.78;5010575;28;20424;-77
2021/04/19 01:13:40;;;;;;;37.17;25.77;;;;;;;6.46;65.75;95476.50;5012601;28;20022;-75
2021/04/19 01:16:06;;;;;;;31.85;23.23;;;;;;;6.51;65.51;95478.34;5010674;28;20045;-78
2021/04/19 01:18:31;;;;;;;35.45;24.95;;;;;;;6.64;65.94;95506.81;5009667;28;20423;-78
2021/04/19 01:20:57;;;;;;;31.20;23.13;;;;;;;6.50;65.17;95464.34;5009123;28;20044;-78
2021/04/19 01:23:22;;;;;;;31.10;23.25;;;;;;;6.63;65.73;95484.09;5010299;28;20040;-77
2021/04/19 01:25:48;;;;;;;34.53;24.95;;;;;;;6.67;65.96;95481.72;5012494;28;20030;-77
2021/04/19 01:28:14;;;;;;;29.35;23.23;;;;;;;6.72;65.19;95490.41;5010257;28;20961;-79
2021/04/19 01:30:42;;;;;;;31.48;24.30;;;;;;;6.82;65.06;95494.09;5010323;28;20060;-77
2021/04/19 01:33:08;;;;;;;34.58;24.17;;;;;;;6.57;65.46;95495.75;5010041;28;20488;-79
2021/04/19 01:35:34;;;;;;;32.13;24.52;;;;;;;6.53;65.46;95489.41;5010203;28;20042;-77
2021/04/19 01:38:00;;;;;;;31.33;23.95;;;;;;;6.54;66.25;95469.06;5012068;28;20428;-79
2021/04/19 01:40:27;;;;;;;31.17;23.90;;;;;;;6.58;65.78;95470.91;5009678;28;20034;-78
2021/04/19 01:42:54;;;;;;;36.40;24.17;;;;;;;6.59;66.32;95480.41;5008786;28;20038;-78
2021/04/19 01:45:20;;;;;;;30.42;22.38;;;;;;;6.67;65.94;95485.16;5009861;28;20480;-77
2021/04/19 01:47:45;;;;;;;28.45;23.02;;;;;;;6.54;65.80;95461.13;5024876;28;20044;-78
2021/04/19 01:50:17;;;;;;;36.03;23.88;;;;;;;6.66;66.11;95485.41;5009798;28;20075;-78
2021/04/19 01:52:42;;;;;;;32.75;24.92;;;;;;;6.59;65.51;95469.03;5012159;28;20030;-80
2021/04/19 01:55:12;;;;;;;31.02;22.95;;;;;;;6.54;65.72;95480.41;5009842;28;20112;-79
2021/04/19 01:57:39;;;;;;;31.50;23.95;;;;;;;6.40;66.05;95476.78;5024720;28;20069;-77
2021/04/19 02:00:07;;;;;;;32.28;24.20;;;;;;;6.51;66.76;95502.13;5009551;28;20030;-78
2021/04/19 02:03:11;;;;;;;33.78;23.83;;;;;;;6.63;66.22;95492.03;5007607;28;20038;-78
2021/04/19 02:06:10;;;;;;;30.80;23.65;;;;;;;6.66;65.90;95493.34;5010091;28;20045;-78
2021/04/19 02:08:59;;;;;;;33.00;23.80;;;;;;;6.61;65.80;95499.44;5009430;28;20038;-79
2021/04/19 02:11:31;;;;;;;29.52;23.13;;;;;;;6.63;65.88;95492.03;5009494;28;20033;-77
2021/04/19 02:14:05;;;;;;;32.75;23.42;;;;;;;6.68;66.21;95496.50;5011643;28;20053;-79
2021/04/19 02:17:01;;;;;;;35.60;25.35;;;;;;;6.66;65.93;95491.50;5010224;28;20092;-77
2021/04/19 02:20:11;;;;;;;35.35;25.10;;;;;;;6.75;66.04;95491.72;5009217;28;20042;-76
2021/04/19 02:22:56;;;;;;;33.42;25.05;;;;;;;6.61;66.05;95483.59;5009842;28;20061;-76
2021/04/19 02:25:31;;;;;;;34.08;25.23;;;;;;;6.66;65.83;95475.63;5009808;28;20388;-78
2021/04/19 02:28:07;;;;;;;36.80;24.95;;;;;;;6.80;66.17;95488.25;5009348;28;20034;-78
2021/04/19 02:30:35;;;;;;;34.45;25.00;;;;;;;6.72;65.71;95477.19;5024715;28;20086;-78
2021/04/19 02:33:04;;;;;;;31.88;24.40;;;;;;;6.64;65.77;95469.81;5009459;28;20076;-78
2021/04/19 02:35:32;;;;;;;32.08;24.00;;;;;;;6.65;66.20;95479.31;5024440;28;20038;-78
2021/04/19 02:37:58;;;;;;;32.13;23.50;;;;;;;6.65;65.69;95489.09;5011188;28;20117;-78
2021/04/19 02:40:26;;;;;;;38.88;25.67;;;;;;;6.66;65.64;95488.84;5008848;28;20140;-78
2021/04/19 02:42:54;;;;;;;33.40;24.13;;;;;;;6.50;66.39;95476.75;5009200;28;20053;-77
2021/04/19 02:45:22;;;;;;;38.35;25.98;;;;;;;6.56;65.75;95486.25;5009189;28;20045;-76
2021/04/19 02:47:48;;;;;;;37.47;25.10;;;;;;;6.46;66.68;95463.28;5007703;28;20088;-77
2021/04/19 02:50:20;;;;;;;37.45;25.33;;;;;;;6.60;66.13;95471.41;5009350;28;20069;-78
2021/04/19 02:52:47;;;;;;;34.45;24.05;;;;;;;6.71;66.04;95482.75;5010970;28;20022;-78
2021/04/19 02:55:15;;;;;;;33.55;24.52;;;;;;;6.66;65.85;95467.72;5007860;28;20030;-78
2021/04/19 02:57:50;;;;;;;33.78;24.58;;;;;;;6.67;65.73;95460.56;5007929;28;20038;-75
2021/04/19 03:00:17;;;;;;;31.88;24.08;;;;;;;6.57;65.52;95439.47;5008915;28;20034;-78
2021/04/19 03:02:44;;;;;;;35.58;22.83;;;;;;;6.77;65.48;95465.81;5007442;28;20066;-77
2021/04/19 03:05:13;;;;;;;36.35;25.73;;;;;;;6.72;66.02;95468.47;5007826;28;20021;-75
2021/04/19 03:07:43;;;;;;;39.08;26.20;;;;;;;6.65;65.61;95441.53;5010897;28;20018;-77
2021/04/19 03:10:12;;;;;;;36.00;25.70;;;;;;;6.75;66.10;95468.69;5009338;28;20499;-77
2021/04/19 03:12:43;;;;;;;38.45;25.77;;;;;;;6.66;65.40;95454.50;5010268;28;20396;-76
2021/04/19 03:15:13;;;;;;;31.98;23.95;;;;;;;6.73;65.70;95465.56;5011404;28;20108;-76
2021/04/19 03:17:40;;;;;;;31.48;23.60;;;;;;;6.72;65.84;95452.63;5011082;28;20038;-76
2021/04/19 03:20:13;;;;;;;35.05;23.65;;;;;;;6.61;66.02;95446.59;5014148;28;20021;-77
2021/04/19 03:22:44;;;;;;;36.60;24.23;;;;;;;6.70;65.57;95458.16;5012566;28;20037;-76
2021/04/19 03:25:12;;;;;;;40.08;25.27;;;;;;;6.61;65.86;95448.44;5012604;28;20154;-78
2021/04/19 03:27:39;;;;;;;32.35;24.27;;;;;;;6.45;65.94;95469.63;5027299;28;20026;-78
2021/04/19 03:30:07;;;;;;;38.38;26.25;;;;;;;6.57;66.28;95458.75;5012258;28;20558;-77
2021/04/19 03:32:37;;;;;;;32.95;24.60;;;;;;;6.73;66.55;95464.75;5012096;28;20030;-78
2021/04/19 03:35:08;;;;;;;35.08;24.80;;;;;;;6.80;65.80;95459.16;5014022;28;20049;-77
2021/04/19 03:37:36;;;;;;;32.92;24.23;;;;;;;6.71;65.69;95428.03;5011280;28;20602;-78
2021/04/19 03:40:27;;;;;;;36.10;24.73;;;;;;;7.00;65.66;95470.44;5011990;28;20172;-77
2021/04/19 03:42:56;;;;;;;32.40;24.08;;;;;;;6.97;65.40;95464.94;5011798;28;20543;-76
2021/04/19 03:45:24;;;;;;;33.50;24.42;;;;;;;6.84;65.37;95449.63;5012183;28;20053;-77
2021/04/19 03:47:52;;;;;;;36.72;24.75;;;;;;;6.84;65.56;95442.50;5011594;28;20630;-76
2021/04/19 03:50:22;;;;;;;38.45;25.35;;;;;;;6.90;65.67;95444.03;5011738;28;20022;-75
2021/04/19 03:52:49;;;;;;;34.40;23.67;;;;;;;6.92;64.79;95462.31;5012108;28;20432;-77
2021/04/19 03:55:15;;;;;;;36.55;25.17;;;;;;;6.94;65.02;95460.16;5026874;28;20046;-76
2021/04/19 03:57:43;;;;;;;33.38;24.58;;;;;;;6.97;65.00;95463.06;5011393;28;20045;-77
2021/04/19 04:00:13;;;;;;;37.25;26.00;;;;;;;6.80;64.93;95475.03;5011637;28;20049;-78
2021/04/19 04:02:41;;;;;;;35.55;24.45;;;;;;;6.89;65.02;95466.28;5011373;28;20034;-77
2021/04/19 04:05:08;;;;;;;35.45;24.65;;;;;;;6.94;65.21;95468.88;5010226;28;20041;-78
2021/04/19 04:07:34;;;;;;;34.95;26.10;;;;;;;6.99;64.92;95462.78;5013251;28;20028;-78
2021/04/19 04:10:02;;;;;;;36.08;25.42;;;;;;;7.18;64.81;95479.63;5011198;28;20563;-77
2021/04/19 04:12:27;;;;;;;37.28;25.48;;;;;;;6.75;64.93;95404.47;5011428;28;20034;-75
2021/04/19 04:14:56;;;;;;;33.47;25.40;;;;;;;7.29;64.52;95477.69;5011028;28;20034;-77
2021/04/19 04:17:21;;;;;;;32.38;24.02;;;;;;;7.19;64.75;95465.31;5011093;28;20104;-77
2021/04/19 04:19:47;;;;;;;34.65;24.50;;;;;;;7.37;64.34;95486.91;5013200;28;20511;-76
2021/04/19 04:22:14;;;;;;;35.88;24.40;;;;;;;7.26;63.89;95465.00;5010864;28;20038;-76
2021/04/19 04:24:40;;;;;;;32.85;25.05;;;;;;;7.40;63.78;95489.00;5010207;28;20049;-76
2021/04/19 04:27:06;;;;;;;36.10;25.88;;;;;;;6.70;64.76;95497.00;5010934;28;20032;-78
2021/04/19 04:29:32;;;;;;;34.85;25.67;;;;;;;6.14;67.29;95463.66;5011121;28;20038;-78
2021/04/19 04:31:58;;;;;;;36.28;26.77;;;;;;;6.47;66.77;95491.28;5013091;28;20024;-77
2021/04/19 04:34:23;;;;;;;32.25;24.17;;;;;;;6.40;66.52;95476.78;5026460;28;20069;-78
2021/04/19 04:36:48;;;;;;;39.03;26.02;;;;;;;6.73;66.32;95486.69;5010919;28;20050;-77
2021/04/19 04:39:14;;;;;;;37.30;25.55;;;;;;;6.90;65.58;95496.16;5009510;28;20409;-77
2021/04/19 04:41:39;;;;;;;35.28;24.92;;;;;;;6.94;65.53;95473.38;5026024;28;20030;-78
2021/04/19 04:44:07;;;;;;;34.40;24.80;;;;;;;7.20;65.25;95485.41;5012957;28;20056;-78
2021/04/19 04:46:45;;;;;;;38.08;25.58;;;;;;;7.34;64.77;95500.69;5010966;28;20037;-77
2021/04/19 04:49:17;;;;;;;31.73;23.80;;;;;;;7.38;64.95;95494.56;5010635;28;20049;-77
2021/04/19 04:51:46;;;;;;;35.85;25.80;;;;;;;7.37;63.68;95490.34;5009125;28;20033;-76
2021/04/19 04:54:15;;;;;;;35.95;25.05;;;;;;;7.31;64.00;95470.25;5010881;28;20091;-78
2021/04/19 04:56:44;;;;;;;38.15;26.20;;;;;;;7.30;63.43;95463.41;5010726;28;20030;-78
2021/04/19 04:59:11;;;;;;;35.58;25.75;;;;;;;7.39;63.81;95495.38;5010688;28;20025;-78
2021/04/19 05:01:38;;;;;;;35.20;25.45;;;;;;;7.37;64.20;95478.97;5027541;28;20133;-75
2021/04/19 05:04:05;;;;;;;42.45;26.35;;;;;;;7.54;63.70;95492.63;5010503;28;20518;-78
2021/04/19 05:06:31;;;;;;;36.03;25.55;;;;;;;7.51;63.74;95475.41;5010299;28;20121;-78
2021/04/19 05:08:58;;;;;;;40.40;26.38;;;;;;;7.57;63.52;95473.53;5010251;28;20120;-78
2021/04/19 05:11:23;;;;;;;37.97;26.00;;;;;;;7.45;63.05;95459.84;5010141;28;20562;-77
2021/04/19 05:13:49;;;;;;;36.42;25.25;;;;;;;7.67;63.67;95468.16;5012085;28;20050;-77
2021/04/19 05:16:25;;;;;;;39.58;25.85;;;;;;;7.80;62.91;95491.34;5010536;28;20530;-79
2021/04/19 05:18:50;;;;;;;40.17;26.65;;;;;;;7.53;63.29;95486.53;5009692;28;20084;-76
2021/04/19 05:21:16;;;;;;;41.42;26.67;;;;;;;7.38;64.52;95469.97;5009863;28;20045;-77
2021/04/19 05:23:41;;;;;;;41.70;26.70;;;;;;;7.69;63.94;95465.25;5010177;28;20664;-77
2021/04/19 05:26:07;;;;;;;37.28;25.60;;;;;;;7.67;63.52;95486.69;5011765;28;20108;-77
2021/04/19 05:28:33;;;;;;;41.65;24.90;;;;;;;7.93;63.03;95460.00;5010128;28;20048;-79
2021/04/19 05:30:58;;;;;;;38.72;24.98;;;;;;;8.23;62.88;95475.59;5009727;28;20124;-77
2021/04/19 05:33:24;;;;;;;36.78;25.63;;;;;;;8.52;62.61;95485.41;5009704;28;20057;-76
2021/04/19 05:35:51;;;;;;;32.95;24.40;;;;;;;8.67;61.88;95479.94;5009737;28;20543;-76
2021/04/19 05:38:17;;;;;;;34.25;24.40;;;;;;;8.76;61.22;95475.59;5006921;28;20022;-70
2021/04/19 05:40:44;;;;;;;38.08;23.65;;;;;;;8.95;60.81;95496.84;5011610;28;20040;-79
2021/04/19 05:43:10;;;;;;;32.80;24.25;;;;;;;8.88;60.16;95495.63;5009659;28;20038;-78
2021/04/19 05:45:36;;;;;;;34.72;24.33;;;;;;;9.02;60.01;95494.66;5009589;28;20391;-80
2021/04/19 05:48:04;;;;;;;27.05;22.27;;;;;;;9.11;59.59;95473.59;5007086;28;20038;-68
2021/04/19 05:50:29;;;;;;;36.28;24.65;;;;;;;9.24;59.24;95485.34;5009600;28;20048;-80
2021/04/19 05:52:57;;;;;;;30.27;22.52;;;;;;;9.39;58.32;95493.09;5012097;28;20034;-73
2021/04/19 05:55:25;;;;;;;31.70;22.95;;;;;;;9.51;58.46;95485.47;5009177;28;20369;-74
2021/04/19 05:58:17;;;;;;;35.85;23.80;;;;;;;9.71;58.64;95500.31;5008141;28;20041;-79
2021/04/19 06:01:07;;;;;;;33.58;24.80;;;;;;;9.63;57.51;95482.41;5000047;28;20038;-79
2021/04/19 06:03:37;;;;;;;32.60;23.45;;;;;;;9.70;57.98;95490.78;4990757;28;20044;-75
2021/04/19 06:06:17;;;;;;;30.65;23.08;;;;;;;9.67;57.99;95496.66;5017161;28;20097;-77
2021/04/19 06:08:51;;;;;;;28.92;22.67;;;;;;;9.61;57.97;95503.91;5025276;28;20049;-81
2021/04/19 06:11:26;;;;;;;31.00;23.15;;;;;;;9.09;58.30;95459.78;5017238;28;20490;-76
2021/04/19 06:13:56;;;;;;;33.83;23.40;;;;;;;9.17;58.82;95492.88;5011811;28;20025;-77
2021/04/19 06:16:23;;;;;;;32.15;23.52;;;;;;;9.06;59.47;95492.22;4998834;28;20133;-72
2021/04/19 06:18:49;;;;;;;33.78;22.92;;;;;;;8.34;60.74;95493.00;4988483;28;20022;-73
2021/04/19 06:21:15;;;;;;;34.97;23.80;;;;;;;7.20;65.15;95500.50;4989809;28;20129;-72
2021/04/19 06:23:41;;;;;;;30.15;21.75;;;;;;;7.80;63.88;95501.94;4988273;28;20038;-74
2021/04/19 06:26:08;;;;;;;29.48;22.25;;;;;;;8.23;62.38;95488.06;4991647;28;20035;-74
2021/04/19 06:28:35;;;;;;;28.88;21.90;;;;;;;8.39;62.03;95499.34;4989086;28;20503;-71
2021/04/19 06:31:01;;;;;;;30.05;22.08;;;;;;;8.84;61.00;95490.88;4987643;28;20447;-74
2021/04/19 06:33:27;;;;;;;29.38;21.88;;;;;;;9.50;59.54;95475.16;4989766;28;20038;-80
2021/04/19 06:35:52;;;;;;;28.67;22.33;;;;;;;10.16;58.86;95482.84;4989293;28;20427;-73
2021/04/19 06:38:18;;;;;;;31.63;21.75;;;;;;;8.64;60.09;95501.72;4988858;28;20018;-71
2021/04/19 06:40:45;;;;;;;28.67;21.73;;;;;;;8.31;60.70;95490.91;4990647;28;20511;-69
2021/04/19 06:43:12;;;;;;;28.42;22.63;;;;;;;7.86;62.36;95489.44;4988168;28;20125;-69
2021/04/19 06:45:38;;;;;;;35.70;21.85;;;;;;;8.14;63.00;95498.50;4989398;28;20035;-80
2021/04/19 06:48:05;;;;;;;32.65;22.73;;;;;;;8.19;63.13;95493.16;4991581;28;20485;-78
2021/04/19 06:50:32;;;;;;;30.90;21.00;;;;;;;7.65;63.60;95506.56;4993056;28;20042;-68
2021/04/19 06:52:58;;;;;;;29.38;22.45;;;;;;;7.54;65.20;95489.97;4994616;28;20056;-71
2021/04/19 06:55:23;;;;;;;31.63;21.70;;;;;;;8.09;63.76;95493.25;4993196;28;20047;-82
2021/04/19 06:57:52;;;;;;;27.90;21.50;;;;;;;8.22;62.76;95497.88;4993061;28;20053;-75
2021/04/19 07:00:19;;;;;;;23.98;21.13;;;;;;;8.16;63.04;95492.91;4992166;28;20031;-72
2021/04/19 07:02:51;;;;;;;31.60;21.20;;;;;;;9.43;61.43;95491.44;4991564;28;20547;-78
2021/04/19 07:05:18;;;;;;;;;;;;;;;10.36;57.90;95492.38;4993028;28;20033;-82
2021/04/19 07:07:53;;;;;;;26.90;20.63;;;;;;;11.06;55.77;95479.88;4994852;28;20556;-77
2021/04/19 07:10:19;;;;;;;22.60;20.20;;;;;;;10.11;56.46;95485.59;4993080;28;20242;-75
2021/04/19 07:12:45;;;;;;;28.45;20.52;;;;;;;11.09;55.34;95484.56;4992767;28;20027;-77
2021/04/19 07:15:12;;;;;;;24.17;20.35;;;;;;;11.29;55.05;95435.44;4992578;28;20045;-78
2021/04/19 07:17:38;;;;;;;26.05;20.02;;;;;;;10.85;53.54;95490.09;4992189;28;20088;-74
2021/04/19 07:20:04;;;;;;;28.85;20.73;;;;;;;9.05;58.85;95446.28;4994168;28;20493;-72
2021/04/19 07:22:30;;;;;;;23.70;20.88;;;;;;;9.25;59.30;95473.63;4992062;28;20046;-76
2021/04/19 07:24:56;;;;;;;23.33;20.77;;;;;;;9.15;59.60;95479.88;4992398;28;20045;-74
2021/04/19 07:27:22;;;;;;;25.45;20.33;;;;;;;9.05;60.36;95487.97;4990582;28;20065;-75
2021/04/19 07:29:48;;;;;;;24.08;20.88;;;;;;;9.42;59.70;95492.53;4993012;28;20046;-79
2021/04/19 07:32:14;;;;;;;26.60;20.73;;;;;;;8.87;60.64;95486.88;4991389;28;20030;-76
2021/04/19 07:34:40;;;;;;;26.15;20.80;;;;;;;8.25;62.11;95425.78;5011087;28;20117;-79
2021/04/19 07:37:08;;;;;;;26.27;20.10;;;;;;;8.89;61.50;95460.84;4994270;28;20054;-82
2021/04/19 07:39:36;;;;;;;26.80;20.73;;;;;;;9.14;60.14;95478.28;4993954;28;20050;-83
2021/04/19 07:42:04;;;;;;;27.88;20.05;;;;;;;9.60;58.87;95482.97;4994333;28;20030;-81
2021/04/19 07:44:55;;;;;;;24.30;19.23;;;;;;;9.78;59.18;95486.69;4994507;28;20034;-78
2021/04/19 07:47:30;;;;;;;22.88;19.17;;;;;;;9.97;58.32;95478.66;4993668;28;20018;-85
2021/04/19 07:49:58;;;;;;;25.60;20.33;;;;;;;10.44;56.34;95482.13;4996429;28;20528;-84
2021/04/19 07:52:29;;;;;;;24.30;20.08;;;;;;;10.17;56.35;95473.00;4994084;28;20113;-80
2021/04/19 07:55:07;;;;;;;29.38;21.13;;;;;;;9.37;59.49;95463.41;4993651;28;20042;-80
2021/04/19 07:57:33;;;;;;;25.52;20.55;;;;;;;9.62;60.01;95491.41;5008704;28;20514;-82
2021/04/19 07:59:58;;;;;;;29.73;20.35;;;;;;;9.33;58.99;95465.81;4992672;28;20034;-79
2021/04/19 08:02:25;;;;;;;22.88;20.42;;;;;;;9.19;60.51;95470.25;4993494;28;20033;-79
2021/04/19 08:04:53;;;;;;;25.85;20.88;;;;;;;9.79;58.54;95489.03;4995605;28;20027;-80
2021/04/19 08:07:19;;;;;;;26.90;20.98;;;;;;;9.70;58.92;95487.31;4992256;28;20513;-82
2021/04/19 08:09:58;;;;;;;24.02;19.35;;;;;;;9.80;58.37;95489.81;4993818;28;20041;-79
2021/04/19 08:12:32;;;;;;;23.33;20.58;;;;;;;9.64;59.50;95489.28;4994162;28;20050;-80
2021/04/19 08:14:58;;;;;;;23.45;20.90;;;;;;;9.92;58.67;95478.75;4993949;28;20035;-81
2021/04/19 08:17:31;;;;;;;26.75;20.85;;;;;;;10.43;56.08;95457.41;4994060;28;20088;-80
2021/04/19 08:19:56;;;;;;;27.30;20.67;;;;;;;10.60;56.73;95478.91;4995481;28;20050;-80
2021/04/19 08:22:30;;;;;;;26.20;20.50;;;;;;;11.32;54.48;95470.25;4993519;28;20058;-82
2021/04/19 08:25:18;;;;;;;28.00;20.75;;;;;;;10.79;56.09;95486.75;4991946;28;20049;-81
2021/04/19 08:27:47;;;;;;;22.75;20.38;;;;;;;11.93;52.71;95479.53;4993285;28;20035;-81
2021/04/19 08:30:15;;;;;;;22.33;19.92;;;;;;;12.63;51.38;95464.66;4993484;28;20080;-82
2021/04/19 08:32:44;;;;;;;22.27;19.88;;;;;;;12.58;51.05;95466.66;4993364;28;20042;-82
2021/04/19 08:35:10;;;;;;;21.42;19.23;;;;;;;12.25;50.76;95467.00;4993281;28;20031;-81
2021/04/19 08:37:36;;;;;;;23.15;18.50;;;;;;;11.32;52.48;95464.91;4995099;28;20031;-82
2021/04/19 08:40:03;;;;;;;23.70;19.75;;;;;;;10.64;55.27;95463.13;4993101;28;20041;-80
2021/04/19 08:42:30;;;;;;;20.35;17.33;;;;;;;10.79;53.28;95470.81;4992898;28;20096;-82
2021/04/19 08:44:58;;;;;;;21.13;17.77;;;;;;;11.78;51.22;95471.88;4991761;28;20489;-79
2021/04/19 08:47:27;;;;;;;19.88;16.55;;;;;;;11.89;50.44;95472.44;4992404;28;20424;-79
2021/04/19 08:49:58;;;;;;;20.13;18.20;;;;;;;12.81;49.56;95462.84;5009617;28;20669;-78
2021/04/19 08:52:24;;;;;;;19.95;16.50;;;;;;;13.23;47.75;95439.22;4991936;28;20061;-78
2021/04/19 08:54:49;;;;;;;17.73;15.82;;;;;;;13.71;46.71;95465.78;4992246;28;20038;-79
2021/04/19 08:57:15;;;;;;;20.00;16.77;;;;;;;13.50;45.60;95438.91;4991997;28;20042;-76
2021/04/19 08:59:45;;;;;;;18.98;17.08;;;;;;;12.71;47.45;95460.44;4992375;28;20034;-79
2021/04/19 09:02:14;;;;;;;19.35;17.27;;;;;;;11.52;50.17;95462.91;4990923;28;20065;-78
2021/04/19 09:04:39;;;;;;;18.42;16.17;;;;;;;11.46;50.94;95464.84;4994449;28;20480;-80
2021/04/19 09:07:05;;;;;;;17.23;15.63;;;;;;;11.84;50.07;95470.69;4992422;28;20041;-79
2021/04/19 09:09:43;;;;;;;16.95;15.35;;;;;;;11.70;49.87;95472.56;4992542;28;20556;-80
2021/04/19 09:12:11;;;;;;;17.23;15.45;;;;;;;12.22;49.24;95481.72;4991804;28;20026;-80
2021/04/19 09:14:39;;;;;;;16.77;15.20;;;;;;;13.35;47.06;95465.31;4991998;28;20038;-81
2021/04/19 09:17:05;;;;;;;17.05;15.32;;;;;;;13.43;45.43;95470.69;4994412;28;20495;-81
2021/04/19 09:19:33;;;;;;;17.77;16.00;;;;;;;13.94;44.17;95455.72;4992313;28;20140;-82
2021/04/19 09:22:10;;;;;;;18.58;16.35;;;;;;;14.60;43.87;95457.31;4991964;28;20042;-82
2021/04/19 09:25:00;;;;;;;19.25;17.35;;;;;;;14.68;42.85;95459.16;4992438;28;20057;-82
2021/04/19 09:28:00;;;;;;;19.08;17.13;;;;;;;13.79;45.27;95469.59;4992036;28;20038;-83
2021/04/19 09:30:28;;;;;;;21.88;16.80;;;;;;;11.49;50.55;95455.50;4992300;28;20031;-83
2021/04/19 09:33:06;;;;;;;19.63;16.23;;;;;;;10.75;53.13;95475.16;4991990;28;20031;-81
2021/04/19 09:35:46;;;;;;;18.27;16.38;;;;;;;12.35;49.02;95460.63;4991859;28;20089;-80
2021/04/19 09:38:39;;;;;;;17.85;16.00;;;;;;;12.41;48.43;95454.06;4991856;28;20026;-82
2021/04/19 09:41:18;;;;;;;18.08;15.45;;;;;;;12.85;46.76;95445.13;4988883;28;20104;-80
2021/04/19 09:43:54;;;;;;;15.07;13.68;;;;;;;11.87;48.44;95432.72;4991510;28;20050;-81
2021/04/19 09:46:20;;;;;;;14.30;13.10;;;;;;;13.61;44.83;95450.06;4992372;28;20034;-83
2021/04/19 09:49:02;;;;;;;13.73;12.15;;;;;;;14.61;42.18;95450.84;4994690;28;20397;-80
2021/04/19 09:51:28;;;;;;;14.93;13.43;;;;;;;14.48;40.92;95445.38;4995337;28;20054;-82
2021/04/19 09:54:11;;;;;;;14.98;13.55;;;;;;;12.72;45.19;95435.31;4994783;28;20030;-80
2021/04/19 09:56:44;;;;;;;15.50;13.90;;;;;;;13.95;42.68;95445.81;4997912;28;20035;-84
2021/04/19 09:59:15;;;;;;;15.55;14.10;;;;;;;13.76;43.02;95436.22;4991572;28;20026;-76
2021/04/19 10:01:44;;;;;;;14.18;12.82;;;;;;;13.17;43.68;95414.53;4992575;28;20069;-73
2021/04/19 10:04:10;;;;;;;14.07;12.63;;;;;;;14.64;41.68;95383.25;4987017;28;20104;-70
2021/04/19 10:06:37;;;;;;;13.15;11.82;;;;;;;15.97;40.17;95433.38;4990091;28;20035;-75
2021/04/19 10:09:10;;;;;;;16.25;14.73;;;;;;;15.42;38.75;95404.19;4973420;23;20507;-70
2021/04/19 10:11:41;;;;;;;15.20;13.80;;;;;;;15.04;39.11;95407.75;5011319;28;20419;-68
2021/04/19 10:14:09;;;;;;;13.60;12.30;;;;;;;13.35;41.51;95415.34;5024704;28;20026;-68
2021/04/19 10:16:45;;;;;;;16.55;13.63;;;;;;;12.82;44.85;95426.25;5012201;28;20109;-73
2021/04/19 10:19:12;;;;;;;14.32;12.85;;;;;;;12.56;43.32;95400.28;5010144;28;20038;-78
2021/04/19 10:21:38;;;;;;;14.85;13.30;;;;;;;12.70;44.47;95424.19;5009501;28;20700;-71
2021/04/19 10:24:04;;;;;;;15.40;13.98;;;;;;;13.24;43.86;95427.44;5015006;28;20095;-83
2021/04/19 10:26:39;;;;;;;18.98;14.70;;;;;;;11.67;49.55;95441.22;5014637;28;20096;-80
2021/04/19 10:29:21;;;;;;;19.30;15.68;;;;;;;10.55;54.28;95436.44;5014570;28;20049;-78
2021/04/19 10:31:57;;;;;;;27.15;17.42;;;;;;;11.18;53.26;95432.22;5011811;28;20046;-79
2021/04/19 10:34:27;;;;;;;19.83;16.33;;;;;;;10.62;53.84;95404.91;5013828;28;20522;-81
2021/04/19 10:36:58;;;;;;;18.05;16.23;;;;;;;11.61;52.08;95429.09;5010663;28;20046;-82
2021/04/19 10:39:27;;;;;;;19.88;17.92;;;;;;;11.04;53.56;95386.19;5029076;28;20041;-79
2021/04/19 10:41:58;;;;;;;18.73;16.55;;;;;;;11.42;51.41;95379.47;5012712;28;20037;-77
2021/04/19 10:44:43;;;;;;;17.73;15.65;;;;;;;12.09;50.42;95429.28;5012548;28;20026;-80
2021/04/19 10:47:12;;;;;;;18.15;16.25;;;;;;;12.78;49.15;95418.06;5013574;28;20029;-78
2021/04/19 10:49:38;;;;;;;17.08;15.35;;;;;;;11.59;51.19;95399.31;5015300;28;20026;-76
2021/04/19 10:52:09;;;;;;;18.52;16.55;;;;;;;13.41;47.56;95390.06;5011719;28;20369;-74
2021/04/19 10:54:41;;;;;;;17.67;15.87;;;;;;;12.59;49.10;95407.69;5010233;28;20111;-76
2021/04/19 10:57:08;;;;;;;;;;;;;;;12.23;49.29;95419.31;5013649;28;20068;-75
2021/04/19 10:59:34;;;;;;;18.88;16.48;;;;;;;11.07;53.07;95415.66;5013279;28;19964;-74
2021/04/19 11:02:07;;;;;;;18.27;16.17;;;;;;;11.97;50.78;95373.84;5015122;28;20033;-75
2021/04/19 11:04:35;;;;;;;17.30;15.70;;;;;;;12.93;48.41;95348.22;5012119;28;20042;-74
2021/04/19 11:07:30;;;;;;;16.75;15.07;;;;;;;13.86;46.75;95405.69;5010880;28;20546;-75
2021/04/19 11:10:20;;;;;;;19.58;15.13;;;;;;;12.10;49.65;95392.72;5012533;28;20085;-75
2021/04/19 11:13:00;;;;;;;16.88;15.10;;;;;;;12.58;47.50;95341.25;5027398;28;20050;-76
2021/04/19 11:15:33;;;;;;;16.17;13.88;;;;;;;14.01;46.31;95354.38;5024785;28;20042;-74
2021/04/19 11:18:19;;;;;;;14.70;11.73;;;;;;;12.75;45.47;95387.47;5012578;28;20034;-75
2021/04/19 11:20:46;;;;;;;14.93;13.52;;;;;;;12.36;46.49;95371.50;5027636;28;20062;-76
2021/04/19 11:23:29;;;;;;;13.70;12.18;;;;;;;12.46;44.60;95377.34;5011158;28;20032;-76
2021/04/19 11:25:58;;;;;;;14.05;12.75;;;;;;;13.42;44.30;95364.13;5014710;28;20026;-79
2021/04/19 11:28:31;;;;;;;14.95;13.40;;;;;;;13.37;45.48;95365.06;5012392;28;20435;-74
2021/04/19 11:31:09;;;;;;;14.18;12.80;;;;;;;13.44;45.37;95369.91;5012809;28;20580;-74
2021/04/19 11:33:35;;;;;;;14.98;13.27;;;;;;;13.83;43.64;95331.50;5010864;28;20113;-76
2021/04/19 11:36:05;;;;;;;15.93;14.32;;;;;;;13.11;45.75;95326.88;5027263;28;20042;-75